DJE weather

Djerba Zarzis International Airport
Djerba, Medenine Governorate, Tunisia

Public forecast

Using degrees Celsius for public forecast. Weather courtesy of forecast.io.

Current aviation weather report (METAR) for Djerba Zarzis International Airport

Retrieved 2019/10/14 14:30 UTC (21 minutes ago):

DTTJ 141430Z 04008KT 010V080 9999 FEW023 27/19 Q1017

Aviation forecast (TAF) for Djerba Zarzis International Airport

Retrieved 2019/10/14 12:03 UTC (3 hours ago):

TAF DTTJ 141100Z 1412/1512 33005KT 9999 FEW026